Time;durP1;ratioP1;P1;durP2;ratioP2;P2;SDS_P1;SDS_P2;PMS_P1;PMS_P2;Temp;Humidity;BMP_temperature;BMP_pressure;BME280_temperature;BME280_humidity;BME280_pressure;Samples;Min_cycle;Max_cycle;Signal;HPM_P1;HPM_P2
2022/04/29 00:00:54;;;;;;;11.60;7.00;;;0.10;1.00;;;0.75;89.88;100285.59;5040002;27;129090;-76
2022/04/29 00:03:22;;;;;;;18.63;8.00;;;0.10;1.00;;;0.75;89.43;100279.44;5023810;27;121128;-76
2022/04/29 00:05:51;;;;;;;18.45;8.38;;;0.00;1.00;;;0.76;89.36;100276.53;5039915;27;122296;-78
2022/04/29 00:08:21;;;;;;;17.02;8.10;;;0.00;1.00;;;0.75;88.83;100272.25;5024819;27;129846;-75
2022/04/29 00:10:49;;;;;;;14.85;7.65;;;-0.10;1.00;;;0.73;89.24;100276.19;5040216;27;129503;-75
2022/04/29 00:13:18;;;;;;;14.20;7.35;;;-0.20;1.00;;;0.69;89.29;100268.63;5023865;27;119401;-76
2022/04/29 00:15:46;;;;;;;17.50;8.25;;;-0.20;1.00;;;0.68;89.01;100269.66;5017902;28;119030;-76
2022/04/29 00:18:15;;;;;;;16.05;8.32;;;-0.30;1.00;;;0.64;89.19;100273.00;5021918;28;130408;-74
2022/04/29 00:20:43;;;;;;;16.58;8.25;;;-0.30;1.00;;;0.62;89.53;100275.91;5004823;28;130521;-75
2022/04/29 00:23:12;;;;;;;13.98;7.50;;;-0.30;1.00;;;0.55;89.59;100275.19;5023099;28;119797;-77
2022/04/29 00:25:42;;;;;;;17.73;8.35;;;-0.40;1.00;;;0.50;89.55;100278.53;5023367;28;119617;-75
2022/04/29 00:28:11;;;;;;;18.42;9.15;;;-0.30;1.00;;;0.49;89.35;100270.75;5024355;28;128547;-75
2022/04/29 00:30:40;;;;;;;19.55;9.15;;;-0.40;1.00;;;0.44;90.01;100273.28;5022307;28;128675;-76
2022/04/29 00:33:09;;;;;;;16.88;8.60;;;-0.40;1.00;;;0.39;90.66;100270.47;5021363;28;119744;-76
2022/04/29 00:35:37;;;;;;;12.85;7.35;;;-0.30;1.00;;;0.17;91.96;100268.25;5022840;28;119133;-77
2022/04/29 00:38:05;;;;;;;11.77;7.22;;;-0.20;1.00;;;0.14;92.27;100274.88;5000720;28;130537;-76
2022/04/29 00:40:34;;;;;;;13.18;7.22;;;-0.20;1.00;;;0.17;91.55;100273.59;5000373;28;129945;-74
2022/04/29 00:43:04;;;;;;;10.52;6.95;;;-0.30;1.00;;;0.18;91.13;100268.03;5017511;28;119784;-76
2022/04/29 00:45:33;;;;;;;14.07;7.70;;;-0.40;1.00;;;0.17;90.88;100262.91;5004349;28;118461;-76
2022/04/29 00:48:02;;;;;;;12.48;7.55;;;-0.50;1.00;;;0.18;90.74;100272.56;5003807;28;129336;-73
2022/04/29 00:50:31;;;;;;;13.88;8.43;;;-0.50;1.00;;;0.20;90.69;100269.69;5017254;28;129866;-75
2022/04/29 00:53:01;;;;;;;15.90;8.38;;;-0.60;1.00;;;0.14;90.73;100264.19;5002884;28;122004;-77
2022/04/29 00:55:31;;;;;;;15.82;8.32;;;-0.60;1.00;;;0.14;90.69;100269.53;5003929;28;121479;-75
2022/04/29 00:58:09;;;;;;;14.52;8.70;;;-0.60;1.00;;;0.14;90.07;100261.53;5017905;28;130142;-75
2022/04/29 01:00:38;;;;;;;16.38;9.63;;;-0.70;1.00;;;0.11;90.49;100269.16;5018473;28;129658;-77
2022/04/29 01:03:11;;;;;;;17.73;9.23;;;-0.80;1.00;;;0.07;90.92;100268.00;5020322;28;119403;-73
2022/04/29 01:05:41;;;;;;;17.35;8.85;;;-0.70;1.00;;;0.07;90.60;100263.44;5018252;28;120286;-75
2022/04/29 01:08:10;;;;;;;18.38;9.02;;;-0.80;1.00;;;0.09;90.73;100261.38;5018354;28;129986;-76
2022/04/29 01:10:39;;;;;;;15.60;8.95;;;-0.80;1.00;;;0.11;90.39;100256.66;5020506;28;128927;-75
2022/04/29 01:13:09;;;;;;;16.42;8.80;;;-0.90;1.00;;;0.09;90.27;100255.22;5017557;28;119624;-76
2022/04/29 01:15:38;;;;;;;19.10;9.30;;;-0.90;1.00;;;0.08;90.40;100249.09;5017518;28;120264;-78
2022/04/29 01:18:09;;;;;;;14.70;9.50;;;-0.90;1.00;;;0.07;90.84;100251.97;5017778;27;129845;-76
2022/04/29 01:20:39;;;;;;;19.70;9.75;;;-0.90;1.00;;;0.05;91.21;100248.69;5020951;28;130515;-76
2022/04/29 01:23:12;;;;;;;18.25;9.82;;;-0.90;1.00;;;-0.16;92.48;100252.63;5019158;28;119560;-76
2022/04/29 01:25:42;;;;;;;19.63;9.45;;;-0.70;1.00;;;-0.28;93.90;100249.88;5021868;28;119337;-76
2022/04/29 01:28:10;;;;;;;21.27;11.38;;;-0.60;1.00;;;-0.23;93.75;100252.72;5004340;28;129598;-77
2022/04/29 01:30:43;;;;;;;20.48;9.95;;;-0.70;1.00;;;-0.17;92.81;100251.84;5003807;28;129722;-75
2022/04/29 01:33:13;;;;;;;22.30;10.73;;;-0.80;1.00;;;-0.15;92.25;100249.75;5020866;28;118793;-79
2022/04/29 01:35:42;;;;;;;19.90;11.00;;;-0.90;1.00;;;-0.32;93.60;100246.03;5017314;28;119286;-75
2022/04/29 01:38:13;;;;;;;23.45;10.77;;;-0.80;1.00;;;-0.34;94.46;100250.75;5019573;28;129608;-77
2022/04/29 01:40:42;;;;;;;21.23;11.40;;;-0.80;1.00;;;-0.29;93.65;100242.94;5017746;28;129716;-74
2022/04/29 01:43:17;;;;;;;20.40;9.85;;;-0.80;1.00;;;-0.24;93.02;100245.75;4988474;28;122103;-76
2022/04/29 01:45:46;;;;;;;22.65;10.45;;;-1.00;1.00;;;-0.29;93.56;100253.59;5000897;28;121417;-76
2022/04/29 01:48:46;;;;;;;19.95;10.68;;;-0.90;1.00;;;-0.34;94.31;100243.59;4999868;28;130928;-78
2022/04/29 01:51:16;;;;;;;15.90;9.63;;;-0.90;1.00;;;-0.27;93.28;100241.66;5004331;28;129920;-76
2022/04/29 01:53:53;;;;;;;20.63;9.80;;;-1.00;1.00;;;-0.26;92.84;100242.50;5020566;28;119184;-76
2022/04/29 01:56:32;;;;;;;16.70;9.90;;;-1.10;1.00;;;-0.28;93.17;100244.53;5021280;28;119515;-75
2022/04/29 01:59:04;;;;;;;20.55;10.18;;;-1.00;1.00;;;-0.26;93.65;100242.50;5018381;28;130262;-76
2022/04/29 02:01:37;;;;;;;20.35;10.90;;;-1.00;1.00;;;-0.24;93.35;100254.56;5022229;28;128749;-75
2022/04/29 02:04:06;;;;;;;19.88;10.73;;;-1.10;1.00;;;-0.22;92.51;100235.66;5020613;28;119698;-75
2022/04/29 02:06:37;;;;;;;19.52;10.48;;;-1.20;1.00;;;-0.26;93.04;100235.28;5019575;28;118897;-75
2022/04/29 02:09:08;;;;;;;21.13;10.27;;;-1.10;1.00;;;-0.34;93.96;100240.09;5002888;28;129891;-75
2022/04/29 02:11:36;;;;;;;20.23;11.15;;;-1.10;1.00;;;-0.31;93.92;100234.31;5021329;28;129512;-75
2022/04/29 02:14:24;;;;;;;20.52;11.40;;;-1.10;1.00;;;-0.35;94.85;100238.47;5022271;28;119312;-74
2022/04/29 02:17:02;;;;;;;20.08;10.20;;;-1.00;1.00;;;-0.27;94.64;100235.50;5003964;27;119363;-76
2022/04/29 02:19:32;;;;;;;19.77;10.65;;;-1.10;1.00;;;-0.26;94.38;100239.81;5006592;28;129332;-74
2022/04/29 02:22:01;;;;;;;20.95;10.80;;;-1.10;1.00;;;-0.31;94.86;100244.97;5021107;28;130979;-75
2022/04/29 02:24:32;;;;;;;25.30;11.68;;;-1.00;1.00;;;-0.41;95.95;100240.16;5008726;28;118594;-74
2022/04/29 02:27:02;;;;;;;20.58;10.40;;;-0.90;1.00;;;-0.37;95.73;100234.16;4990702;28;119910;-78
2022/04/29 02:29:31;;;;;;;18.67;11.40;;;-0.90;1.00;;;-0.33;96.06;100231.06;5006090;28;129086;-75
2022/04/29 02:32:00;;;;;;;21.35;11.05;;;-0.90;1.00;;;-0.31;95.73;100229.81;5006355;28;128688;-77
2022/04/29 02:34:29;;;;;;;19.67;11.25;;;-1.00;1.00;;;-0.27;96.30;100236.31;5022299;28;121682;-74
2022/04/29 02:36:58;;;;;;;21.45;10.57;;;-0.90;1.00;;;-0.25;95.83;100230.75;5020644;28;122756;-77
2022/04/29 02:39:26;;;;;;;19.60;11.02;;;-0.90;1.00;;;-0.24;95.96;100237.75;5023231;28;129582;-76
2022/04/29 02:41:56;;;;;;;19.13;11.20;;;-0.90;1.00;;;-0.22;96.04;100235.66;5003471;28;129202;-76
2022/04/29 02:44:25;;;;;;;19.35;10.75;;;-0.90;1.00;;;-0.15;95.73;100241.75;5023320;28;119284;-76
2022/04/29 02:47:09;;;;;;;20.75;10.30;;;-0.90;1.00;;;-0.09;95.20;100240.84;5019780;28;120543;-78
2022/04/29 02:49:40;;;;;;;21.45;11.73;;;-0.90;1.00;;;-0.03;94.56;100236.50;5003578;28;129601;-77
2022/04/29 02:52:11;;;;;;;20.67;10.27;;;-0.90;1.00;;;0.02;94.42;100243.81;5020746;28;129284;-76
2022/04/29 02:54:40;;;;;;;22.42;11.68;;;-1.00;1.00;;;0.02;94.04;100239.28;5002988;28;118622;-75
2022/04/29 02:57:17;;;;;;;22.25;11.05;;;-0.90;1.00;;;0.07;93.88;100235.97;5004355;28;119706;-77
2022/04/29 02:59:46;;;;;;;19.42;10.57;;;-0.90;1.00;;;0.13;93.69;100240.41;5000652;28;129867;-76
2022/04/29 03:02:15;;;;;;;22.75;10.55;;;-0.80;1.00;;;0.16;93.59;100245.28;5003563;28;129898;-75
2022/04/29 03:04:43;;;;;;;15.55;10.20;;;-0.70;1.00;;;0.15;93.95;100238.31;5026729;28;119194;-76
2022/04/29 03:07:12;;;;;;;20.67;9.70;;;-0.60;1.00;;;0.22;93.91;100243.56;5024184;28;119480;-75
2022/04/29 03:10:00;;;;;;;21.00;11.00;;;-0.50;1.00;;;0.42;93.61;100237.97;5019484;28;130932;-74
2022/04/29 03:12:30;;;;;;;16.83;10.23;;;-0.40;1.00;;;0.58;92.85;100237.34;5001892;28;129160;-73
2022/04/29 03:15:19;;;;;;;22.42;10.45;;;-0.40;1.00;;;0.68;92.37;100236.78;5003817;28;119402;-74
2022/04/29 03:20:39;;;;;;;16.80;10.38;;;-0.30;1.00;;;0.81;91.52;100230.41;5005026;28;130039;-73
2022/04/29 03:23:08;;;;;;;16.90;10.32;;;-0.20;1.00;;;0.84;90.98;100225.47;5004803;28;129384;-74
2022/04/29 03:25:40;;;;;;;18.42;10.32;;;-0.20;1.00;;;0.94;91.00;100230.22;5001266;28;123179;-75
2022/04/29 03:28:10;;;;;;;19.88;10.25;;;-0.10;1.00;;;1.02;90.74;100221.88;5018835;28;121871;-78
2022/04/29 03:30:39;;;;;;;17.08;9.68;;;0.00;1.00;;;1.24;89.97;100230.13;5021373;27;130261;-76
2022/04/29 03:33:11;;;;;;;14.45;8.82;;;0.10;1.00;;;1.32;90.06;100237.00;5005073;28;128809;-73
2022/04/29 03:35:44;;;;;;;19.58;9.73;;;0.20;1.00;;;1.50;89.24;100224.59;5004987;28;119629;-73
2022/04/29 03:38:23;;;;;;;17.08;8.68;;;0.40;1.00;;;1.74;88.76;100228.84;5002046;28;119696;-74
2022/04/29 03:40:52;;;;;;;18.45;8.02;;;0.60;1.00;;;2.01;87.88;100232.88;5018297;28;131337;-70
2022/04/29 03:43:25;;;;;;;15.48;8.25;;;0.80;1.00;;;2.37;86.65;100231.72;5003550;28;129076;-72
2022/04/29 03:45:55;;;;;;;13.30;7.63;;;1.00;1.00;;;2.71;85.96;100242.50;5026902;27;119427;-72
2022/04/29 03:51:56;;;;;;;12.23;7.60;;;1.50;1.00;;;3.21;83.03;100228.34;4999677;28;103793;-71
2022/04/29 03:54:25;;;;;;;15.88;8.07;;;1.70;1.00;;;3.46;82.35;100237.84;4984848;28;128213;-71
2022/04/29 03:56:58;;;;;;;17.20;7.68;;;1.70;1.00;;;3.76;81.40;100236.63;4998294;28;119593;-71
2022/04/29 03:59:28;;;;;;;14.73;7.60;;;2.00;1.00;;;3.98;80.29;100243.91;5001061;28;120314;-72
2022/04/29 04:01:57;;;;;;;16.00;7.78;;;2.20;1.00;;;4.10;79.88;100236.53;5017199;28;130545;-75
2022/04/29 04:04:25;;;;;;;12.65;7.97;;;2.30;1.00;;;4.11;79.05;100249.72;5017198;28;130840;-75
2022/04/29 04:07:01;;;;;;;16.80;8.15;;;2.40;1.00;;;4.24;78.50;100245.81;5014922;28;119609;-73
2022/04/29 04:09:59;;;;;;;14.07;7.75;;;2.50;1.00;;;4.32;77.95;100239.19;4993222;28;119374;-76
2022/04/29 04:12:28;;;;;;;13.70;8.00;;;2.60;1.00;;;4.49;77.39;100244.50;5000920;28;129549;-77
2022/04/29 04:15:20;;;;;;;12.38;7.53;;;2.70;1.00;;;4.71;76.14;100240.94;4999189;28;129765;-72
2022/04/29 04:17:51;;;;;;;15.32;8.55;;;2.90;1.00;;;4.80;76.26;100244.78;5012629;28;121772;-76
2022/04/29 04:20:20;;;;;;;16.10;7.95;;;3.00;1.00;;;4.94;75.71;100243.31;5018163;28;122179;-76
2022/04/29 04:22:56;;;;;;;14.68;8.05;;;3.10;1.00;;;5.23;75.24;100237.63;5020757;28;129784;-74
2022/04/29 04:25:26;;;;;;;14.95;7.43;;;3.30;1.00;;;5.54;74.29;100244.00;5020608;28;129272;-74
2022/04/29 04:27:54;;;;;;;15.02;9.18;;;3.60;1.00;;;5.81;73.86;100245.78;5004606;28;118750;-76
2022/04/29 04:30:32;;;;;;;14.25;8.93;;;3.80;1.00;;;6.08;72.94;100237.59;5021421;28;119843;-75
2022/04/29 04:33:00;;;;;;;18.05;8.60;;;4.00;1.00;;;6.31;72.41;100240.94;5019563;28;131618;-76
2022/04/29 04:35:29;;;;;;;15.80;9.00;;;4.20;1.00;;;6.48;71.33;100241.53;5017766;28;129819;-76
2022/04/29 04:37:57;;;;;;;20.05;8.70;;;4.30;1.00;;;6.62;70.78;100238.28;5021056;28;119536;-77
2022/04/29 04:40:43;;;;;;;28.77;15.13;;;4.50;1.00;;;6.71;69.61;100239.41;5017406;28;119979;-75
2022/04/29 04:43:12;;;;;;;28.92;16.95;;;4.50;1.00;;;6.72;68.42;100241.03;5002609;28;129430;-74
2022/04/29 04:45:43;;;;;;;15.93;10.13;;;4.70;1.00;;;6.96;66.23;100245.91;5019756;28;128773;-77
2022/04/29 04:48:31;;;;;;;17.00;9.57;;;4.90;1.00;;;7.28;63.91;100242.94;5020606;28;119387;-75
2022/04/29 04:51:18;;;;;;;;;;;5.20;1.00;;;7.49;62.68;100238.31;5019598;28;119729;-75
2022/04/29 04:53:51;;;;;;;13.73;5.93;;;5.60;1.00;;;7.99;61.31;100246.56;5020375;28;129778;-75
2022/04/29 04:56:21;;;;;;;14.82;5.88;;;5.90;1.00;;;8.50;59.68;100244.75;5017338;28;129777;-73
2022/04/29 04:58:50;;;;;;;17.20;7.35;;;6.30;1.00;;;8.89;58.07;100243.97;5017722;28;119953;-77
2022/04/29 05:01:21;;;;;;;14.40;7.47;;;6.60;1.00;;;9.08;56.42;100238.66;5018099;28;119701;-76
2022/04/29 05:04:09;;;;;;;12.18;5.10;;;6.70;1.00;;;9.18;55.86;100238.59;5018498;28;130033;-76
2022/04/29 05:06:46;;;;;;;8.90;5.20;;;6.90;1.00;;;9.27;54.54;100242.31;5014783;28;131401;-76
2022/04/29 05:09:15;;;;;;;11.93;4.63;;;6.90;1.00;;;9.22;54.01;100244.25;4993614;28;120880;-75
2022/04/29 05:11:45;;;;;;;9.90;4.63;;;6.90;1.00;;;9.31;54.53;100237.13;5003628;28;121981;-74
2022/04/29 05:14:26;;;;;;;10.93;4.78;;;7.10;1.00;;;9.35;53.82;100238.97;5005232;28;132114;-75
2022/04/29 05:16:56;;;;;;;8.50;3.80;;;7.20;1.00;;;9.29;53.88;100240.13;4999022;28;128978;-73
2022/04/29 05:19:51;;;;;;;10.15;4.20;;;7.10;1.00;;;9.27;53.96;100242.31;5000464;28;120125;-77
2022/04/29 05:22:24;;;;;;;11.45;4.45;;;7.10;1.00;;;9.11;53.70;100248.94;5000543;28;119013;-72
2022/04/29 05:24:53;;;;;;;9.63;4.57;;;7.00;1.00;;;9.02;53.32;100251.44;4982873;28;128346;-71
2022/04/29 05:27:39;;;;;;;;;;;6.90;1.00;;;8.95;53.42;100246.34;4998670;28;130143;-74
2022/04/29 05:30:28;;;;;;;8.00;4.38;;;6.80;1.00;;;8.99;53.49;100244.69;5016132;28;119865;-75
2022/04/29 05:33:16;;;;;;;7.32;3.90;;;7.10;1.00;;;9.34;53.67;100248.19;5018117;28;119223;-74
2022/04/29 05:36:07;;;;;;;6.45;3.75;;;7.30;1.00;;;9.35;53.24;100244.41;5016523;28;130592;-74
2022/04/29 05:44:31;;;;;;;8.77;4.05;;;7.60;1.00;;;9.75;50.68;100246.19;5016779;28;119187;-72
2022/04/29 05:46:59;;;;;;;8.15;4.03;;;7.80;1.00;;;9.90;50.89;100249.53;4990600;28;129889;-73
2022/04/29 05:49:29;;;;;;;10.75;3.80;;;8.00;1.00;;;10.08;51.27;100247.97;5029040;27;128431;-73
2022/04/29 05:52:01;;;;;;;6.95;3.45;;;8.10;1.00;;;10.21;51.06;100242.94;5007683;28;119827;-79
2022/04/29 05:54:31;;;;;;;8.93;3.88;;;8.30;1.00;;;10.36;49.89;100245.50;4997753;28;118942;-77
2022/04/29 05:57:01;;;;;;;10.63;4.20;;;8.40;1.00;;;10.52;48.92;100246.09;4994183;28;129128;-74
2022/04/29 05:59:30;;;;;;;7.80;3.97;;;8.50;1.00;;;10.85;48.33;100245.34;4999107;28;129742;-71
2022/04/29 06:02:00;;;;;;;8.32;3.55;;;8.70;1.00;;;11.06;47.63;100251.25;4998411;28;121634;-74
2022/04/29 06:05:01;;;;;;;8.23;3.53;;;8.90;1.00;;;10.59;48.16;100245.72;4991334;28;122711;-72
2022/04/29 06:07:30;;;;;;;10.90;3.30;;;8.70;1.00;;;10.67;48.53;100255.09;5014127;28;129898;-71
2022/04/29 06:09:58;;;;;;;7.68;4.00;;;8.70;1.00;;;10.52;48.57;100246.09;5012244;28;129497;-73
2022/04/29 06:12:27;;;;;;;11.63;3.80;;;8.70;1.00;;;10.69;47.59;100242.84;5017367;28;119299;-71
2022/04/29 06:14:56;;;;;;;5.63;3.15;;;8.60;1.00;;;10.72;47.11;100242.28;5004783;28;118843;-71
2022/04/29 06:17:53;;;;;;;7.32;3.83;;;8.70;1.00;;;10.62;47.74;100245.13;5014178;27;129118;-72
2022/04/29 06:20:44;;;;;;;9.70;3.97;;;8.80;1.00;;;10.71;47.85;100239.84;4993883;28;128642;-70
2022/04/29 06:23:32;;;;;;;7.28;3.17;;;8.90;1.00;;;10.91;46.53;100241.47;4998895;28;120789;-71
2022/04/29 06:26:02;;;;;;;8.15;3.13;;;9.10;1.00;;;11.16;45.97;100237.53;4996144;28;119271;-71
2022/04/29 06:28:36;;;;;;;18.55;4.30;;;9.20;1.00;;;11.19;44.84;100239.66;4997665;28;130721;-69
2022/04/29 06:31:05;;;;;;;12.13;3.72;;;9.20;1.00;;;11.07;46.32;100247.44;4998789;28;129168;-70
2022/04/29 06:33:52;;;;;;;;;;;9.40;1.00;;;11.36;45.28;100240.97;4997635;28;119935;-70
2022/04/29 06:36:22;;;;;;;12.77;4.00;;;9.50;1.00;;;11.81;44.80;100242.06;4998823;28;119430;-70
2022/04/29 06:38:56;;;;;;;10.23;3.75;;;9.70;1.00;;;11.96;43.55;100245.63;4998748;28;129535;-71
2022/04/29 06:41:27;;;;;;;14.23;4.13;;;9.90;1.00;;;11.85;43.77;100239.53;4998751;28;128435;-71
2022/04/29 06:44:07;;;;;;;7.72;3.20;;;9.90;1.00;;;11.81;43.48;100236.63;5012547;28;119709;-74
2022/04/29 06:46:54;;;;;;;6.38;3.28;;;9.90;1.00;;;11.94;43.46;100231.53;5016873;27;119910;-72
2022/04/29 06:49:43;;;;;;;6.60;3.50;;;10.00;1.00;;;11.95;43.27;100233.94;5015906;28;129967;-71
2022/04/29 06:52:32;;;;;;;6.88;3.63;;;10.00;1.00;;;12.13;43.15;100234.94;5018121;28;129682;-76
2022/04/29 06:55:27;;;;;;;8.38;3.95;;;10.10;1.00;;;12.41;42.13;100234.88;5021415;28;122567;-76
2022/04/29 06:57:56;;;;;;;14.13;4.95;;;10.20;1.00;;;12.68;41.60;100227.75;5024125;28;121036;-74
2022/04/29 07:00:26;;;;;;;22.38;5.60;;;10.40;1.00;;;12.68;42.94;100233.19;5005665;28;129965;-74
2022/04/29 07:02:56;;;;;;;12.50;4.30;;;10.60;1.00;;;12.87;42.07;100247.47;5002518;28;128877;-75
2022/04/29 07:05:25;;;;;;;14.23;4.18;;;10.60;1.00;;;13.02;41.30;100240.03;5004661;28;118781;-74
2022/04/29 07:07:54;;;;;;;11.88;4.13;;;10.70;1.00;;;13.05;41.53;100242.94;5018325;28;119370;-78
2022/04/29 07:10:52;;;;;;;15.70;4.50;;;10.90;1.00;;;13.19;40.28;100231.97;5027420;27;130579;-76
2022/04/29 07:13:46;;;;;;;6.75;3.42;;;10.90;1.00;;;12.67;39.46;100243.31;5017380;28;129275;-75
2022/04/29 07:16:16;;;;;;;7.10;3.10;;;10.60;1.00;;;12.43;40.27;100243.53;5021176;28;119982;-72
2022/04/29 07:19:08;;;;;;;14.07;3.45;;;10.40;1.00;;;12.31;41.02;100251.44;4983482;28;118527;-71
2022/04/29 07:21:37;;;;;;;9.23;3.28;;;10.20;1.00;;;12.14;41.03;100239.28;5015045;28;130680;-74
2022/04/29 07:24:08;;;;;;;8.75;3.28;;;10.30;1.00;;;12.27;40.37;100245.00;5002358;28;129141;-74
2022/04/29 07:26:40;;;;;;;6.85;2.83;;;10.50;1.00;;;12.28;39.29;100250.13;5002732;28;119345;-73
2022/04/29 07:29:12;;;;;;;6.25;3.03;;;10.40;1.00;;;12.55;40.25;100249.28;5003262;28;119110;-74
2022/04/29 07:31:50;;;;;;;7.28;2.88;;;10.40;1.00;;;13.15;41.20;100241.09;4999586;28;131211;-75
2022/04/29 07:43:51;;;;;;;7.45;2.97;;;12.00;1.00;;;15.18;36.61;100234.75;5017503;28;130151;-75
2022/04/29 07:46:21;;;;;;;6.97;2.63;;;12.50;1.00;;;14.66;35.79;100227.41;5020778;28;129108;-74
2022/04/29 07:48:49;;;;;;;17.10;3.13;;;11.80;1.00;;;13.94;36.83;100232.19;5018900;28;122906;-72
2022/04/29 07:51:18;;;;;;;5.95;2.63;;;11.40;1.00;;;13.44;36.50;100227.03;5004921;28;121673;-72
2022/04/29 07:53:47;;;;;;;6.03;2.80;;;11.00;1.00;;;13.51;37.79;100232.03;5003912;28;129740;-71
2022/04/29 07:56:17;;;;;;;6.20;3.10;;;11.20;1.00;;;13.45;38.17;100234.09;5001188;28;131224;-74
2022/04/29 07:58:47;;;;;;;6.95;2.97;;;11.00;1.00;;;12.87;37.06;100236.56;5019481;27;119513;-72
2022/04/29 08:01:16;;;;;;;10.88;3.10;;;10.60;1.00;;;12.52;36.88;100241.72;4987969;28;119803;-70
2022/04/29 08:03:47;;;;;;;10.00;3.03;;;10.50;1.00;;;12.32;38.40;100234.78;5004396;28;129879;-75
2022/04/29 08:06:20;;;;;;;7.72;3.60;;;10.30;1.00;;;12.18;37.95;100232.09;4987696;27;128767;-73
2022/04/29 08:08:49;;;;;;;14.02;7.65;;;10.20;1.00;;;12.16;39.31;100233.53;5021561;27;119747;-72
2022/04/29 08:11:19;;;;;;;9.98;5.55;;;10.30;1.00;;;12.63;37.81;100230.59;5022284;27;119553;-72
2022/04/29 08:14:06;;;;;;;7.70;3.42;;;10.40;1.00;;;13.21;36.96;100218.84;5023177;27;129598;-71
2022/04/29 08:16:53;;;;;;;7.28;3.60;;;11.00;1.00;;;13.85;35.44;100231.38;5023163;27;129398;-74
2022/04/29 08:19:44;;;;;;;6.85;3.28;;;11.50;1.00;;;14.66;34.52;100216.47;5021297;27;120616;-73
2022/04/29 08:22:40;;;;;;;10.35;4.10;;;11.80;1.00;;;14.48;33.92;100203.91;5029869;27;119924;-73
2022/04/29 08:25:09;;;;;;;7.18;3.17;;;11.90;1.00;;;14.41;34.25;100209.03;5022648;27;130031;-73
2022/04/29 08:27:40;;;;;;;9.05;4.40;;;11.90;1.00;;;14.44;34.83;100197.47;5012335;28;129569;-74
2022/04/29 08:30:11;;;;;;;5.28;2.80;;;12.00;1.00;;;13.84;34.76;100216.13;5000727;28;119666;-73
2022/04/29 08:32:41;;;;;;;8.82;3.65;;;11.70;1.00;;;13.60;35.48;100211.06;5019309;28;119075;-75
2022/04/29 08:35:15;;;;;;;7.97;3.85;;;11.00;1.00;;;13.38;36.78;100206.47;5003164;28;132627;-72
2022/04/29 08:37:45;;;;;;;12.60;7.53;;;11.10;1.00;;;13.34;35.56;100200.00;5002668;28;129801;-74
2022/04/29 08:40:14;;;;;;;10.65;5.00;;;11.00;1.00;;;13.02;36.96;100205.41;5002458;28;121853;-70
2022/04/29 08:42:45;;;;;;;6.63;3.10;;;10.90;1.00;;;13.01;37.32;100203.00;5018915;28;121867;-73
2022/04/29 08:45:18;;;;;;;11.82;3.80;;;10.90;1.00;;;13.38;37.28;100199.06;5003473;28;129701;-76
2022/04/29 08:47:54;;;;;;;20.48;6.30;;;11.10;1.00;;;13.63;37.35;100189.44;5018684;28;130188;-74
2022/04/29 08:50:26;;;;;;;15.48;7.53;;;11.20;1.00;;;13.58;37.09;100199.66;5003856;28;119362;-72
2022/04/29 08:52:56;;;;;;;7.60;4.50;;;11.30;1.00;;;13.52;38.15;100185.34;5018613;28;119252;-75
2022/04/29 09:01:03;;;;;;;5.60;2.90;;;11.30;1.00;;;13.85;37.75;100182.25;4983493;28;118812;-73
2022/04/29 09:03:32;;;;;;;8.48;3.25;;;11.30;1.00;;;14.62;36.30;100179.19;4983797;28;118885;-74
2022/04/29 09:06:01;;;;;;;4.63;2.72;;;12.10;1.00;;;15.05;35.49;100181.88;4982264;28;129971;-73
2022/04/29 09:08:33;;;;;;;5.95;2.72;;;12.60;1.00;;;14.42;35.78;100177.88;4997983;28;130502;-72
2022/04/29 09:11:05;;;;;;;9.75;4.75;;;12.30;1.00;;;14.01;35.63;100183.44;4984224;28;119975;-72
2022/04/29 09:13:38;;;;;;;7.93;3.92;;;11.80;1.00;;;13.15;37.11;100192.03;4998404;28;120250;-70
2022/04/29 09:16:12;;;;;;;9.75;4.47;;;11.00;1.00;;;12.67;40.66;100188.00;4982824;28;129693;-72
2022/04/29 09:18:45;;;;;;;12.77;4.68;;;10.80;1.00;;;11.95;45.53;100214.06;4999049;28;129933;-75
2022/04/29 09:21:16;;;;;;;7.85;4.43;;;10.20;1.00;;;11.01;49.52;100192.38;5002475;28;118761;-75
2022/04/29 09:23:49;;;;;;;15.15;6.15;;;9.60;1.00;;;10.95;53.81;100199.84;5002651;28;121122;-72
2022/04/29 09:26:31;;;;;;;14.65;6.20;;;9.50;1.00;;;11.08;55.05;100200.97;5017947;27;129922;-74
2022/04/29 09:29:21;;;;;;;11.80;6.93;;;9.50;1.00;;;11.23;55.52;100196.38;5002768;28;130405;-73
2022/04/29 09:32:11;;;;;;;8.55;4.85;;;9.60;1.00;;;11.42;53.93;100191.69;4997885;28;121748;-78
2022/04/29 09:34:59;;;;;;;7.32;4.00;;;9.70;1.00;;;11.65;51.83;100186.34;5018181;28;122371;-71
2022/04/29 09:37:30;;;;;;;6.38;3.90;;;9.90;1.00;;;12.23;50.19;100193.91;5002867;28;130133;-73
2022/04/29 09:40:06;;;;;;;7.63;4.53;;;10.20;1.00;;;12.44;49.65;100190.72;5019511;28;129246;-76
2022/04/29 09:42:39;;;;;;;11.60;7.07;;;10.70;1.00;;;13.27;50.65;100190.34;5017431;28;120020;-76
2022/04/29 09:45:14;;;;;;;8.60;4.28;;;11.20;1.00;;;13.68;43.30;100193.94;5001460;27;119187;-72
2022/04/29 09:47:44;;;;;;;8.52;4.43;;;11.40;1.00;;;13.93;43.06;100184.22;5037814;27;130131;-71
2022/04/29 09:50:13;;;;;;;11.32;6.38;;;11.60;1.00;;;14.42;40.83;100177.88;5023096;27;128920;-73
2022/04/29 09:52:44;;;;;;;9.15;4.07;;;11.60;1.00;;;14.85;41.46;100168.88;5038066;27;119429;-73
2022/04/29 09:55:14;;;;;;;5.68;3.28;;;12.50;1.00;;;15.63;37.71;100176.06;5016098;27;119601;-72
2022/04/29 09:57:51;;;;;;;8.52;3.20;;;12.80;1.00;;;16.30;37.53;100168.13;5018012;28;130177;-73
2022/04/29 10:00:21;;;;;;;;;;;13.00;1.00;;;16.29;37.39;100161.81;5018031;28;129390;-76
2022/04/29 10:02:50;;;;;;;4.85;2.70;;;13.20;1.00;;;15.61;36.95;100167.34;5018030;28;120166;-73
2022/04/29 10:05:20;;;;;;;6.45;2.92;;;13.40;1.00;;;14.77;39.08;100162.28;5000233;28;119231;-74
2022/04/29 10:08:09;;;;;;;7.80;3.28;;;12.50;1.00;;;14.06;40.24;100162.59;4999463;28;130107;-76
2022/04/29 10:10:38;;;;;;;6.40;3.15;;;12.20;1.00;;;13.76;40.23;100167.78;5017357;28;129675;-73
2022/04/29 10:13:09;;;;;;;8.15;2.65;;;11.80;1.00;;;13.57;39.82;100171.59;4986423;28;118550;-75
2022/04/29 10:16:16;;;;;;;5.13;2.70;;;11.50;1.00;;;13.12;39.58;100166.22;4998000;28;118947;-72
2022/04/29 10:22:15;;;;;;;17.20;9.40;;;11.60;1.00;;;13.57;41.09;100171.59;5017689;28;129794;-76
2022/04/29 10:24:45;;;;;;;6.57;3.25;;;11.90;1.00;;;13.95;39.77;100164.81;4985205;28;121782;-72
2022/04/29 10:27:15;;;;;;;6.82;2.92;;;11.70;1.00;;;13.99;38.64;100165.75;5017625;28;121925;-74
2022/04/29 10:29:44;;;;;;;7.38;2.80;;;11.80;1.00;;;14.54;38.01;100170.63;4999573;28;129866;-74
2022/04/29 10:32:14;;;;;;;5.80;2.80;;;12.20;1.00;;;14.80;37.19;100166.31;5002379;28;129357;-76
2022/04/29 10:34:43;;;;;;;12.63;4.00;;;12.10;1.00;;;14.59;38.14;100177.88;5017658;28;119639;-71
2022/04/29 10:37:15;;;;;;;8.27;3.28;;;12.10;1.00;;;14.44;39.25;100175.63;5019914;28;119079;-73
2022/04/29 10:40:11;;;;;;;5.93;3.20;;;12.10;1.00;;;13.55;41.75;100179.28;5020625;27;128831;-72
2022/04/29 10:43:06;;;;;;;20.70;5.53;;;11.80;1.00;;;13.97;42.63;100182.44;5021016;28;130008;-73
2022/04/29 10:45:35;;;;;;;11.15;4.47;;;11.80;1.00;;;14.17;43.34;100183.78;5020219;28;119611;-72
2022/04/29 10:48:34;;;;;;;7.93;3.80;;;11.80;1.00;;;14.19;43.89;100180.72;5021043;28;119575;-75
2022/04/29 10:51:48;;;;;;;33.85;20.08;;;11.80;1.00;;;14.22;45.00;100182.03;4973008;28;129276;-76
2022/04/29 10:54:45;;;;;;;12.88;4.70;;;11.90;1.00;;;14.33;44.92;100181.38;5023143;28;128260;-75
2022/04/29 10:57:41;;;;;;;14.18;8.15;;;11.80;1.00;;;14.58;45.17;100187.19;5006219;28;118433;-75
2022/04/29 11:00:13;;;;;;;13.05;4.38;;;12.10;1.00;;;14.59;45.21;100183.34;5005767;28;119466;-75
2022/04/29 11:02:43;;;;;;;8.93;4.30;;;12.20;1.00;;;14.47;45.26;100188.63;5021936;28;129058;-75
2022/04/29 11:05:36;;;;;;;12.05;3.63;;;12.20;1.00;;;14.00;45.21;100175.56;5005384;28;129282;-75
2022/04/29 11:08:12;;;;;;;8.57;3.28;;;11.90;1.00;;;13.91;45.60;100185.66;5020813;28;119689;-75
2022/04/29 11:10:57;;;;;;;10.10;3.72;;;11.80;1.00;;;13.65;45.44;100183.66;5020872;28;119714;-76
2022/04/29 11:13:30;;;;;;;9.50;3.25;;;11.70;1.00;;;14.11;44.06;100171.41;5020207;28;129746;-73